Airfield :
LOGIN :

Register | Disclaimer

   EN    FR    IT 

 










Legend :    VFR   Marginal VFR   IFR   Intensive IFR   Very Intensive IFR
Visi :
Ceiling :
>= 8 km
>= 3000ft
5 to 8 km
1000 to 3000 ft
1500m to 5 km
500 to 1000 ft
800 to 1500m
200 to 500 ft
< 800m
< 200 ft
Symbols :   Thunderstorms  Fog  Heavy snow  Heavy precipitations  Wind > 20 kt
SIGMETs :     Misc.  Thunderstorms  Icing  Turbulence  Mountain Waves  Volcanic Ashes







- Airport Elevation : 302 ft
- IATA code : CGN


EDDK - Cologne Bonn

CURRENT METAR :
  • 240650Z 21006KT 170V240 9999 FEW042 BKN060 BKN280 11/06 Q1018 NOSIG

EXPIRED METARs :
  • 240620Z 20006KT CAVOK 10/06 Q1018 NOSIG
  • 240550Z VRB02KT CAVOK 09/07 Q1018 NOSIG
  • 240520Z VRB04KT CAVOK 08/06 Q1017 NOSIG
  • 240450Z VRB01KT CAVOK 08/05 Q1017 NOSIG
  • 240420Z VRB01KT CAVOK 07/05 Q1017 NOSIG

TAF TAF EDDK
Valid from the 24 at 06:00 until the 25 at 12:00 UTC


240500Z 2406/2512 VRB02KT CAVOK
TEMPO 2408/2418 24010KT
TEMPO 2508/2512 26015G25KT SHRA SCT030TCU
No reported NOTAMs for that airfield.



MET'MAP, your aeronautical weather chart ! - Copyright ORBIFLY December 2007 - Disclaimer

ORBIFLY MET'MAP TEAM :

Programming & Development : Alexandra Zaïnal
Concept & Development : Baudouin d'Aumeries
Co-Development & Prog : Marc-Olivier Méhu
Technical & hardware support : Manuel Goepfert

Contact : metmap@orbifly.com




SOURCES & CREDITS :

   NOAA